Kezdőlap
METAR-TAF:

METAR-TAF

Repülőterek :

Epinal, Franciaország

földrajzi szélesség: 48-19-31N, földrajzi hosszúság: 6-04-00E, magasság: 330 m

Jelenlegi meteorológiai megfigyelések

A jelentés 34 perccel ezelõtt készült, 08:00 UTC
Dél-délnyugati szél 14 kt
Hőmérséklet 7°C
Páratartalom 100%
Légköri nyomás 1006 hPa
Látótávolság: 6000 m
enyhe esõ

METAR: LFSG 280800Z AUTO 20014KT 6000 -RA ////// 07/07 Q1006

Idő: 09:34 (08:34 UTC)


TAF: hiányzik

Meteorológiai megfigyelések és előrejelzések több, mint 4000 repülőtéren (METAR és TAF jelentéseket).

A térképen piros és sárga pontok jelzik az elérhető meteorológiai állomásokat.

Mozgassa az egeret a pont fölött, hogy megjelenjen az állomás neve.

Azután kattintson az időjárási megfigyelések és előrejelzések megtekintéséhez.

A térkép megváltoztatása: kattintson a fekete keresztel jelölt zöld gombra ráközelítéshez, a vonallal jelölt zöld gombra távolításhoz, vagy a zöld nyilakra a szomszédos térképek eléréséhez.


METAR-TAF: